KOWB/OWB METAR and TAF weather

Enter ICAO airport designator
Station Type Date Time Source
KOWB METAR 2019/08/24 06:56 UTC NOAA

KOWB 240656Z AUTO 07007KT 10SM CLR 19/16 A3012 RMK AO2 SLP197 T01940156


Station Type Date Time Source
KOWB Decoded METAR 2019/08/24 06:56 UTC NOAA

Station name not available
Aug 24, 2019 - 02:56 AM EDT / 2019.08.24 0656 UTC
Wind: from the ENE (070 degrees) at 8 MPH (7 KT):0
Visibility: 10 mile(s):0
Sky conditions: clear
Temperature: 66.9 F (19.4 C)
Dew Point: 60.1 F (15.6 C)
Relative Humidity: 78%
Pressure (altimeter): 30.12 in. Hg (1019 hPa)
ob: KOWB 240656Z AUTO 07007KT 10SM CLR 19/16 A3012 RMK AO2 SLP197 T01940156
cycle: 7

Station Type Date Time Source
KOWB TAF 2019/08/24 06:22 UTC NOAA

TAF KOWB 240520Z 2406/2506 05005KT P6SM BKN150

Example: see airport list